MSC Vanessa — HOWD — position and weather

sailwx.info

Track history (hours):
 
Tides and Currents Weather Stations Pressure Air Temp Water Temp Dewpoint Dewpoint Depression Visibility Wind Speed Wind Dir Waves Ship Positions

MSC Vanessa

Last reported at 2017-Feb-19 16:33 UTC. Time now 2017-Feb-19 16:57 UTC.
Position S 24°06' W 046°22'.

Length 300 m; draft 10.1 m.

Type: Cargo ship. MMSI: 356946000.

Date/timePositionNaut miles runAvg speedWind from/ knotsBaromVisibWave heightAir tempDewpointWater temp
2017-Feb-19 16:33S 24°06' W 046°22'9 9.4
2017-Feb-19 15:34S 24°14' W 046°19'0 0.0
2017-Feb-19 14:28S 24°14' W 046°19'0 0.0
2017-Feb-19 13:31S 24°14' W 046°19'0 0.0
2017-Feb-19 12:31S 24°14' W 046°19'0 0.0
2017-Feb-19 11:31S 24°14' W 046°19'0 0.0
2017-Feb-19 10:31S 24°14' W 046°19'0 0.0
2017-Feb-19 09:19S 24°14' W 046°19'0 0.2
2017-Feb-19 08:31S 24°15' W 046°19'0 0.2
2017-Feb-19 07:31S 24°14' W 046°19'0 0.0
2017-Feb-19 06:31S 24°14' W 046°19'0 0.0
2017-Feb-19 05:25S 24°14' W 046°19'0 0.1
2017-Feb-19 04:31S 24°15' W 046°19'2 2.2
2017-Feb-19 03:33S 24°14' W 046°21'9 8.7
2017-Feb-19 02:34S 24°19' W 046°29'1716.6
2017-Feb-19 01:33S 24°34' W 046°38'1716.7
2017-Feb-19 00:33S 24°47' W 046°49'1716.8
2017-Feb-18 23:34S 25°01' W 046°59'1716.7
2017-Feb-18 22:34S 25°14' W 047°10'1716.7
2017-Feb-18 21:33S 25°28' W 047°21'1716.6
2017-Feb-18 20:32S 25°41' W 047°32'1616.4
2017-Feb-18 19:33S 25°54' W 047°43'5016.6
2017-Feb-18 16:34S 26°36' W 048°13'30 1.8
2017-Feb-17 23:32S 26°54' W 048°40'0 0.0
2017-Feb-17 21:32S 26°54' W 048°40'9 1.1
2017-Feb-17 13:27S 26°57' W 048°31'1010.7
2017-Feb-17 12:33S 27°03' W 048°23'1412.9
2017-Feb-17 11:29S 27°14' W 048°13'1212.5
2017-Feb-17 10:33S 27°26' W 048°12'1312.7
2017-Feb-17 09:33S 27°38' W 048°15'1312.8
2017-Feb-17 08:33S 27°51' W 048°19'62813.0
2017-Feb-15 08:15S 34°48' W 057°28'912.4
2017-Feb-15 07:33S 34°45' W 057°38'1111.3
2017-Feb-15 06:33S 34°44' W 057°52'1615.8
2017-Feb-15 05:33S 34°38' W 058°09'10 0.7
2017-Feb-14 15:06S 34°38' W 058°21'3 5.6
2017-Feb-14 14:33S 34°37' W 058°18'1211.9
2017-Feb-14 13:33S 34°39' W 058°03'12 3.8
2017-Feb-14 10:33S 34°44' W 057°51'1 1.1
2017-Feb-14 09:31S 34°44' W 057°49'1111.2
2017-Feb-14 08:31S 34°45' W 057°36'  
2017-Feb-10 23:33S 24°48' W 046°41'2019.9
2017-Feb-10 22:33S 24°29' W 046°33'2020.0
2017-Feb-10 21:32S 24°10' W 046°26'1313.5
2017-Feb-10 20:33S 23°59' W 046°17'5 0.3
2017-Feb-10 06:06S 23°55' W 046°21'3 6.3
2017-Feb-10 05:33S 23°58' W 046°18'5 5.3
2017-Feb-10 04:33S 24°02' W 046°20'5 5.2
2017-Feb-10 03:33S 24°04' W 046°15'  
Track history (hours):
 
Tides and Currents Weather Stations Pressure Air Temp Water Temp Dewpoint Dewpoint Depression Visibility Wind Speed Wind Dir Waves Ship Positions

MSC Vanessa

Last reported at 2017-Feb-19 16:33 UTC. Time now 2017-Feb-19 16:57 UTC.
Position S 24°06' W 046°22'.

Length 300 m; draft 10.1 m.

Type: Cargo ship. MMSI: 356946000.

Date/timePositionNaut miles runAvg speedWind from/ knotsBaromVisibWave heightAir tempDewpointWater temp
2017-Feb-19 16:33S 24°06' W 046°22'9 9.4
2017-Feb-19 15:34S 24°14' W 046°19'0 0.0
2017-Feb-19 14:28S 24°14' W 046°19'0 0.0
2017-Feb-19 13:31S 24°14' W 046°19'0 0.0
2017-Feb-19 12:31S 24°14' W 046°19'0 0.0
2017-Feb-19 11:31S 24°14' W 046°19'0 0.0
2017-Feb-19 10:31S 24°14' W 046°19'0 0.0
2017-Feb-19 09:19S 24°14' W 046°19'0 0.2
2017-Feb-19 08:31S 24°15' W 046°19'0 0.2
2017-Feb-19 07:31S 24°14' W 046°19'0 0.0
2017-Feb-19 06:31S 24°14' W 046°19'0 0.0
2017-Feb-19 05:25S 24°14' W 046°19'0 0.1
2017-Feb-19 04:31S 24°15' W 046°19'2 2.2
2017-Feb-19 03:33S 24°14' W 046°21'9 8.7
2017-Feb-19 02:34S 24°19' W 046°29'1716.6
2017-Feb-19 01:33S 24°34' W 046°38'1716.7
2017-Feb-19 00:33S 24°47' W 046°49'1716.8
2017-Feb-18 23:34S 25°01' W 046°59'1716.7
2017-Feb-18 22:34S 25°14' W 047°10'1716.7
2017-Feb-18 21:33S 25°28' W 047°21'1716.6
2017-Feb-18 20:32S 25°41' W 047°32'1616.4
2017-Feb-18 19:33S 25°54' W 047°43'5016.6
2017-Feb-18 16:34S 26°36' W 048°13'30 1.8
2017-Feb-17 23:32S 26°54' W 048°40'0 0.0
2017-Feb-17 21:32S 26°54' W 048°40'9 1.1
2017-Feb-17 13:27S 26°57' W 048°31'1010.7
2017-Feb-17 12:33S 27°03' W 048°23'1412.9
2017-Feb-17 11:29S 27°14' W 048°13'1212.5
2017-Feb-17 10:33S 27°26' W 048°12'1312.7
2017-Feb-17 09:33S 27°38' W 048°15'1312.8
2017-Feb-17 08:33S 27°51' W 048°19'62813.0
2017-Feb-15 08:15S 34°48' W 057°28'912.4
2017-Feb-15 07:33S 34°45' W 057°38'1111.3
2017-Feb-15 06:33S 34°44' W 057°52'1615.8
2017-Feb-15 05:33S 34°38' W 058°09'10 0.7
2017-Feb-14 15:06S 34°38' W 058°21'3 5.6
2017-Feb-14 14:33S 34°37' W 058°18'1211.9
2017-Feb-14 13:33S 34°39' W 058°03'12 3.8
2017-Feb-14 10:33S 34°44' W 057°51'1 1.1
2017-Feb-14 09:31S 34°44' W 057°49'1111.2
2017-Feb-14 08:31S 34°45' W 057°36'  
2017-Feb-10 23:33S 24°48' W 046°41'2019.9
2017-Feb-10 22:33S 24°29' W 046°33'2020.0
2017-Feb-10 21:32S 24°10' W 046°26'1313.5
2017-Feb-10 20:33S 23°59' W 046°17'5 0.3
2017-Feb-10 06:06S 23°55' W 046°21'3 6.3
2017-Feb-10 05:33S 23°58' W 046°18'5 5.3
2017-Feb-10 04:33S 24°02' W 046°20'5 5.2
2017-Feb-10 03:33S 24°04' W 046°15'  

Dump ship's entire track history